createdAt,value
2023-02-18T00:01:45.842Z,8.52
2023-02-18T00:04:13.850Z,8.55
2023-02-18T00:06:41.807Z,8.57
2023-02-18T00:09:12.514Z,8.59
2023-02-18T00:11:40.711Z,8.64
2023-02-18T00:14:12.161Z,8.65
2023-02-18T00:16:40.289Z,8.72
2023-02-18T00:19:11.170Z,8.78
2023-02-18T00:21:39.560Z,8.73
2023-02-18T00:24:08.954Z,8.77
2023-02-18T00:26:38.261Z,8.67
2023-02-18T00:29:06.106Z,8.73
2023-02-18T00:31:36.125Z,8.83
2023-02-18T00:34:05.741Z,8.87
2023-02-18T00:36:34.367Z,8.80
2023-02-18T00:39:04.862Z,8.76
2023-02-18T00:41:33.377Z,8.71
2023-02-18T00:44:02.770Z,8.75
2023-02-18T00:46:31.070Z,8.65
2023-02-18T00:48:58.937Z,8.62
2023-02-18T00:51:26.969Z,8.65
2023-02-18T00:53:55.435Z,8.62
2023-02-18T00:56:23.504Z,8.71
2023-02-18T00:58:52.150Z,8.73
2023-02-18T01:01:22.071Z,8.74
2023-02-18T01:03:49.943Z,8.78
2023-02-18T01:06:17.834Z,8.72
2023-02-18T01:08:45.906Z,8.73
2023-02-18T01:11:14.530Z,8.80
2023-02-18T01:13:43.200Z,8.86
2023-02-18T01:16:15.250Z,8.83
2023-02-18T01:18:44.771Z,8.82
2023-02-18T01:21:12.844Z,8.72
2023-02-18T01:23:42.862Z,8.78
2023-02-18T01:26:11.826Z,8.78
2023-02-18T01:28:40.760Z,8.78
2023-02-18T01:31:10.944Z,8.68
2023-02-18T01:33:39.158Z,8.63
2023-02-18T01:36:10.165Z,8.72
2023-02-18T01:38:38.699Z,8.73
2023-02-18T01:41:07.451Z,8.57
2023-02-18T01:43:35.868Z,8.58
2023-02-18T01:46:13.637Z,8.60
2023-02-18T01:48:45.265Z,8.63
2023-02-18T01:51:18.298Z,8.59
2023-02-18T01:53:53.628Z,8.57
2023-02-18T01:56:27.246Z,8.49
2023-02-18T01:58:58.066Z,8.38
2023-02-18T02:01:27.923Z,8.47
2023-02-18T02:03:55.958Z,8.50
2023-02-18T02:06:26.764Z,8.54
2023-02-18T02:09:04.399Z,8.55
2023-02-18T02:11:59.715Z,8.62
2023-02-18T02:14:41.985Z,8.60
2023-02-18T02:17:17.982Z,8.67
2023-02-18T02:20:24.409Z,8.65
2023-02-18T02:23:35.813Z,8.64
2023-02-18T02:26:33.464Z,8.65
2023-02-18T02:29:18.519Z,8.64
2023-02-18T02:32:15.092Z,8.60
2023-02-18T02:34:53.066Z,8.60
2023-02-18T02:37:28.188Z,8.64
2023-02-18T02:40:06.196Z,8.59
2023-02-18T02:42:46.461Z,8.54
2023-02-18T02:45:25.127Z,8.53
2023-02-18T02:48:02.138Z,8.41
2023-02-18T02:50:38.884Z,8.52
2023-02-18T02:53:15.928Z,8.53
2023-02-18T02:55:43.942Z,8.53
2023-02-18T02:58:17.507Z,8.49
2023-02-18T03:01:02.365Z,8.57
2023-02-18T03:03:57.719Z,8.54
2023-02-18T03:06:45.654Z,8.47
2023-02-18T03:09:21.484Z,8.55
2023-02-18T03:11:59.813Z,8.53
2023-02-18T03:14:31.673Z,8.56
2023-02-18T03:17:03.247Z,8.46
2023-02-18T03:19:36.276Z,8.49
2023-02-18T03:22:10.100Z,8.59
2023-02-18T03:24:41.648Z,8.63
2023-02-18T03:27:16.402Z,8.57
2023-02-18T03:29:47.733Z,8.56
2023-02-18T03:32:19.682Z,8.49
2023-02-18T03:34:51.664Z,8.40
2023-02-18T03:37:21.712Z,8.49
2023-02-18T03:39:53.797Z,8.38
2023-02-18T03:42:26.119Z,8.44
2023-02-18T03:44:54.104Z,8.55
2023-02-18T03:47:22.062Z,8.52
2023-02-18T03:49:49.908Z,8.47
2023-02-18T03:52:17.881Z,8.50
2023-02-18T03:54:47.157Z,8.43
2023-02-18T03:57:14.987Z,8.50
2023-02-18T03:59:43.180Z,8.47
2023-02-18T04:02:11.126Z,8.52
2023-02-18T04:04:39.079Z,8.60
2023-02-18T04:07:07.090Z,8.68
2023-02-18T04:09:34.913Z,8.65
2023-02-18T04:12:04.155Z,8.69
2023-02-18T04:14:32.178Z,8.66
2023-02-18T04:16:59.979Z,8.64
2023-02-18T04:19:27.855Z,8.68
2023-02-18T04:21:55.730Z,8.72
2023-02-18T04:24:23.658Z,8.60
2023-02-18T04:26:51.603Z,8.66
2023-02-18T04:29:21.009Z,8.70
2023-02-18T04:31:48.946Z,8.75
2023-02-18T04:34:16.900Z,8.74
2023-02-18T04:36:44.886Z,8.78
2023-02-18T04:39:12.848Z,8.67
2023-02-18T04:41:40.927Z,8.69
2023-02-18T04:44:08.822Z,8.78
2023-02-18T04:46:38.048Z,8.71
2023-02-18T04:49:05.864Z,8.69
2023-02-18T04:51:33.830Z,8.64
2023-02-18T04:54:01.729Z,8.53
2023-02-18T04:56:29.566Z,8.47
2023-02-18T04:58:57.504Z,8.41
2023-02-18T05:01:25.345Z,8.48
2023-02-18T05:03:54.587Z,8.50
2023-02-18T05:06:22.523Z,8.56
2023-02-18T05:08:50.340Z,8.55
2023-02-18T05:11:18.204Z,8.60
2023-02-18T05:13:46.247Z,8.61
2023-02-18T05:16:14.187Z,8.62
2023-02-18T05:18:42.387Z,8.71
2023-02-18T05:21:12.299Z,8.65
2023-02-18T05:23:40.181Z,8.63
2023-02-18T05:26:08.218Z,8.57
2023-02-18T05:28:36.302Z,8.60
2023-02-18T05:31:04.412Z,8.61
2023-02-18T05:33:32.313Z,8.63
2023-02-18T05:36:00.192Z,8.66
2023-02-18T05:38:29.414Z,8.72
2023-02-18T05:40:57.430Z,8.65
2023-02-18T05:43:25.427Z,8.70
2023-02-18T05:45:53.346Z,8.68
2023-02-18T05:48:21.148Z,8.68
2023-02-18T05:50:49.034Z,8.70
2023-02-18T05:53:17.717Z,8.66
2023-02-18T05:55:46.992Z,8.67
2023-02-18T05:58:17.134Z,8.67
2023-02-18T06:00:45.031Z,8.68
2023-02-18T06:03:12.875Z,8.55
2023-02-18T06:05:40.770Z,8.53
2023-02-18T06:08:08.646Z,8.46
2023-02-18T06:10:36.520Z,8.48
2023-02-18T06:13:05.783Z,8.43
2023-02-18T06:15:33.975Z,8.34
2023-02-18T06:18:01.859Z,8.31
2023-02-18T06:20:29.744Z,8.28
2023-02-18T06:22:57.577Z,8.35
2023-02-18T06:25:25.781Z,8.37
2023-02-18T06:27:53.651Z,8.31
2023-02-18T06:30:24.332Z,8.21
2023-02-18T06:32:52.526Z,8.22
2023-02-18T06:35:20.457Z,8.23
2023-02-18T06:37:48.319Z,8.30
2023-02-18T06:40:16.232Z,8.27
2023-02-18T06:42:44.152Z,8.27
2023-02-18T06:45:12.010Z,8.35
2023-02-18T06:47:41.212Z,8.49
2023-02-18T06:50:09.517Z,8.45
2023-02-18T06:52:38.126Z,8.53
2023-02-18T06:55:07.016Z,8.53
2023-02-18T06:57:35.224Z,8.62
2023-02-18T07:00:03.152Z,8.73
2023-02-18T07:02:30.907Z,8.76
2023-02-18T07:05:00.345Z,8.72
2023-02-18T07:07:28.183Z,8.69
2023-02-18T07:09:56.018Z,8.71
2023-02-18T07:12:23.966Z,8.72
2023-02-18T07:14:51.861Z,8.86
2023-02-18T07:17:19.994Z,8.95
2023-02-18T07:19:48.179Z,8.95
2023-02-18T07:22:17.389Z,9.01
2023-02-18T07:24:45.539Z,9.01
2023-02-18T07:27:13.569Z,9.02
2023-02-18T07:29:41.404Z,9.03
2023-02-18T07:32:09.286Z,9.08
2023-02-18T07:34:37.346Z,9.09
2023-02-18T07:37:09.267Z,9.00
2023-02-18T07:39:41.379Z,9.13
2023-02-18T07:42:09.841Z,9.12
2023-02-18T07:44:38.397Z,9.21
2023-02-18T07:47:08.406Z,9.27
2023-02-18T07:49:36.457Z,9.31
2023-02-18T07:52:05.483Z,9.31
2023-02-18T07:54:33.576Z,9.33
2023-02-18T07:57:02.890Z,9.39
2023-02-18T07:59:30.930Z,9.40
2023-02-18T08:01:58.937Z,9.45
2023-02-18T08:04:26.971Z,9.53
2023-02-18T08:06:55.080Z,9.54
2023-02-18T08:09:23.037Z,9.54
2023-02-18T08:11:51.182Z,9.60
2023-02-18T08:14:20.604Z,9.65
2023-02-18T08:16:48.725Z,9.67
2023-02-18T08:19:16.798Z,9.70
2023-02-18T08:21:44.663Z,9.69
2023-02-18T08:24:12.774Z,9.65
2023-02-18T08:26:48.667Z,9.66
2023-02-18T08:29:28.720Z,9.70
2023-02-18T08:31:57.418Z,9.67
2023-02-18T08:34:25.336Z,9.70
2023-02-18T08:36:53.303Z,9.69
2023-02-18T08:39:21.210Z,9.66
2023-02-18T08:41:49.159Z,9.60
2023-02-18T08:44:17.202Z,9.49
2023-02-18T08:46:48.207Z,9.47
2023-02-18T08:49:16.174Z,9.38
2023-02-18T08:51:44.606Z,9.43
2023-02-18T08:54:12.436Z,9.48
2023-02-18T08:56:40.737Z,9.46
2023-02-18T08:59:08.733Z,9.41
2023-02-18T09:01:37.124Z,9.45
2023-02-18T09:04:06.695Z,9.36
2023-02-18T09:06:38.821Z,9.33
2023-02-18T09:09:07.288Z,9.26
2023-02-18T09:11:35.568Z,9.39
2023-02-18T09:14:04.123Z,9.28
2023-02-18T09:16:32.062Z,9.23
2023-02-18T09:19:00.111Z,9.33
2023-02-18T09:21:29.833Z,9.31
2023-02-18T09:23:57.679Z,9.24
2023-02-18T09:26:27.329Z,9.30
2023-02-18T09:28:56.546Z,9.35
2023-02-18T09:31:26.497Z,9.36
2023-02-18T09:33:56.820Z,9.40
2023-02-18T09:36:32.503Z,9.41
2023-02-18T09:39:01.019Z,9.44
2023-02-18T09:41:38.809Z,9.49
2023-02-18T09:44:12.730Z,9.46
2023-02-18T09:46:44.476Z,9.46
2023-02-18T09:49:18.425Z,9.41
2023-02-18T09:51:48.141Z,9.49
2023-02-18T09:54:19.917Z,9.55
2023-02-18T09:56:49.073Z,9.45
2023-02-18T09:59:20.010Z,9.55
2023-02-18T10:01:52.106Z,9.52
2023-02-18T10:04:25.186Z,9.53
2023-02-18T10:06:55.853Z,9.52
2023-02-18T10:09:27.084Z,9.62
2023-02-18T10:11:58.458Z,9.37
2023-02-18T10:14:27.619Z,9.43
2023-02-18T10:16:55.678Z,9.52
2023-02-18T10:19:29.019Z,9.48
2023-02-18T10:21:59.041Z,9.59
2023-02-18T10:24:31.532Z,9.73
2023-02-18T10:27:00.771Z,9.53
2023-02-18T10:29:32.281Z,9.40
2023-02-18T10:32:09.869Z,9.42
2023-02-18T10:34:42.771Z,9.50
2023-02-18T10:37:30.270Z,9.59
2023-02-18T10:40:11.795Z,9.61
2023-02-18T10:42:53.009Z,9.75
2023-02-18T10:45:32.900Z,9.72
2023-02-18T10:48:18.545Z,9.76
2023-02-18T10:50:47.720Z,9.74
2023-02-18T10:53:23.659Z,9.80
2023-02-18T10:55:54.542Z,9.81
2023-02-18T10:58:28.353Z,9.97
2023-02-18T11:00:56.759Z,10.03
2023-02-18T11:03:26.710Z,10.10
2023-02-18T11:05:57.550Z,10.07
2023-02-18T11:08:30.157Z,10.18
2023-02-18T11:10:59.338Z,10.21
2023-02-18T11:13:28.808Z,10.20
2023-02-18T11:15:59.342Z,10.18
2023-02-18T11:18:37.310Z,10.18
2023-02-18T11:21:08.189Z,10.31
2023-02-18T11:23:48.386Z,10.31
2023-02-18T11:26:18.857Z,10.14
2023-02-18T11:28:49.191Z,10.21
2023-02-18T11:31:23.348Z,10.28
2023-02-18T11:33:54.360Z,10.32
2023-02-18T11:36:27.250Z,10.33
2023-02-18T11:39:04.417Z,10.41
2023-02-18T11:41:36.592Z,10.58
2023-02-18T11:44:07.310Z,10.69
2023-02-18T11:46:35.625Z,10.77
2023-02-18T11:49:23.356Z,10.87
2023-02-18T11:51:52.042Z,11.02
2023-02-18T11:54:30.372Z,11.15
2023-02-18T11:57:01.127Z,11.17
2023-02-18T11:59:36.411Z,11.17
2023-02-18T12:02:23.451Z,11.18
2023-02-18T12:04:57.669Z,11.24
2023-02-18T12:07:31.882Z,11.24
2023-02-18T12:10:09.372Z,11.26
2023-02-18T12:12:45.039Z,11.28
2023-02-18T12:15:17.948Z,11.23
2023-02-18T12:18:21.988Z,11.30
2023-02-18T12:21:19.244Z,11.51
2023-02-18T12:23:58.037Z,11.54
2023-02-18T12:26:30.895Z,11.64
2023-02-18T12:29:28.869Z,11.46
2023-02-18T12:32:20.819Z,11.52
2023-02-18T12:34:59.046Z,11.53
2023-02-18T12:37:45.356Z,11.48
2023-02-18T12:40:31.382Z,11.37
2023-02-18T12:43:13.145Z,11.24
2023-02-18T12:45:55.276Z,11.30
2023-02-18T12:48:39.749Z,11.25
2023-02-18T12:51:20.005Z,11.18
2023-02-18T12:54:13.679Z,11.27
2023-02-18T12:57:06.077Z,11.27
2023-02-18T13:00:11.940Z,11.18
2023-02-18T13:03:18.761Z,11.14
2023-02-18T13:05:58.435Z,11.13
2023-02-18T13:08:40.458Z,11.09
2023-02-18T13:11:35.704Z,11.07
2023-02-18T13:14:11.021Z,11.08
2023-02-18T13:16:40.916Z,10.97
2023-02-18T13:19:20.394Z,10.98
2023-02-18T13:21:50.882Z,11.02
2023-02-18T13:24:27.480Z,11.03
2023-02-18T13:27:02.852Z,10.90
2023-02-18T13:29:35.856Z,10.98
2023-02-18T13:32:14.508Z,10.95
2023-02-18T13:34:52.583Z,11.02
2023-02-18T13:37:26.997Z,11.07
2023-02-18T13:39:57.486Z,11.14
2023-02-18T13:42:35.097Z,11.06
2023-02-18T13:45:33.966Z,11.15
2023-02-18T13:48:02.737Z,11.07
2023-02-18T13:50:43.175Z,11.18
2023-02-18T13:53:20.936Z,11.13
2023-02-18T13:55:55.149Z,11.06
2023-02-18T13:58:26.833Z,10.95
2023-02-18T14:01:00.401Z,10.85
2023-02-18T14:03:54.458Z,10.88
2023-02-18T14:06:26.016Z,10.96
2023-02-18T14:09:05.565Z,10.94
2023-02-18T14:11:47.868Z,10.82
2023-02-18T14:14:32.521Z,10.71
2023-02-18T14:17:38.545Z,10.68
2023-02-18T14:20:45.393Z,10.64
2023-02-18T14:23:43.449Z,10.46
2023-02-18T14:26:20.365Z,10.39
2023-02-18T14:28:55.784Z,10.47
2023-02-18T14:31:32.511Z,10.25
2023-02-18T14:34:33.990Z,10.12
2023-02-18T14:37:14.144Z,10.14
2023-02-18T14:39:55.544Z,10.09
2023-02-18T14:42:37.107Z,10.14
2023-02-18T14:45:16.773Z,10.20
2023-02-18T14:48:17.076Z,10.03
2023-02-18T14:50:50.109Z,10.09
2023-02-18T14:53:22.287Z,10.07
2023-02-18T14:55:55.022Z,10.03
2023-02-18T14:58:31.300Z,10.13
2023-02-18T15:00:59.620Z,10.00
2023-02-18T15:03:29.869Z,10.08
2023-02-18T15:05:57.758Z,9.93
2023-02-18T15:08:27.263Z,9.81
2023-02-18T15:11:00.818Z,9.72
2023-02-18T15:13:31.577Z,9.45
2023-02-18T15:16:02.886Z,9.45
2023-02-18T15:18:35.061Z,9.73
2023-02-18T15:21:03.842Z,9.69
2023-02-18T15:23:32.990Z,9.45
2023-02-18T15:26:02.389Z,9.35
2023-02-18T15:28:32.966Z,9.39
2023-02-18T15:31:02.788Z,9.45
2023-02-18T15:33:31.195Z,9.43
2023-02-18T15:36:03.281Z,9.41
2023-02-18T15:38:32.155Z,9.32
2023-02-18T15:41:02.228Z,9.31
2023-02-18T15:43:31.177Z,9.10
2023-02-18T15:45:59.981Z,9.20
2023-02-18T15:48:33.883Z,9.21
2023-02-18T15:51:16.168Z,9.15
2023-02-18T15:53:49.030Z,9.09
2023-02-18T15:56:22.899Z,9.08
2023-02-18T15:58:50.992Z,8.98
2023-02-18T16:01:28.642Z,9.08
2023-02-18T16:03:58.003Z,9.17
2023-02-18T16:06:28.379Z,9.23
2023-02-18T16:09:01.602Z,9.25
2023-02-18T16:11:35.088Z,9.10
2023-02-18T16:14:03.435Z,9.09
2023-02-18T16:16:34.624Z,9.13
2023-02-18T16:19:03.498Z,9.17
2023-02-18T16:21:34.462Z,9.09
2023-02-18T16:24:04.553Z,9.00
2023-02-18T16:26:44.536Z,8.88
2023-02-18T16:29:15.065Z,8.79
2023-02-18T16:31:43.098Z,8.85
2023-02-18T16:34:11.027Z,8.90
2023-02-18T16:36:59.118Z,9.00
2023-02-18T16:39:27.636Z,9.03
2023-02-18T16:41:57.877Z,8.99
2023-02-18T16:44:25.944Z,8.95
2023-02-18T16:46:54.007Z,8.88
2023-02-18T16:49:24.897Z,8.63
2023-02-18T16:51:52.995Z,8.60
2023-02-18T16:54:20.876Z,8.58
2023-02-18T16:56:49.366Z,8.49
2023-02-18T16:59:18.637Z,8.50
2023-02-18T17:01:47.061Z,8.42
2023-02-18T17:04:17.388Z,8.38
2023-02-18T17:06:46.452Z,8.33
2023-02-18T17:09:17.014Z,8.34
2023-02-18T17:11:46.074Z,8.36
2023-02-18T17:14:18.072Z,8.35
2023-02-18T17:16:48.269Z,8.36
2023-02-18T17:19:17.141Z,8.38
2023-02-18T17:21:50.127Z,8.33
2023-02-18T17:24:19.993Z,8.17
2023-02-18T17:26:48.027Z,8.16
2023-02-18T17:29:15.868Z,8.12
2023-02-18T17:34:32.704Z,7.99
2023-02-18T17:37:00.816Z,7.97
2023-02-18T17:39:31.323Z,8.02
2023-02-18T17:41:59.205Z,8.14
2023-02-18T17:44:29.176Z,8.19
2023-02-18T17:46:58.612Z,8.19
2023-02-18T17:49:26.451Z,8.13
2023-02-18T17:51:55.855Z,8.09
2023-02-18T17:54:26.104Z,8.07
2023-02-18T17:56:56.004Z,8.04
2023-02-18T17:59:24.188Z,7.94
2023-02-18T18:01:52.331Z,7.98
2023-02-18T18:04:21.832Z,8.00
2023-02-18T18:06:49.993Z,7.94
2023-02-18T18:09:17.999Z,7.86
2023-02-18T18:11:45.908Z,7.94
2023-02-18T18:14:15.215Z,7.88
2023-02-18T18:16:43.228Z,7.81
2023-02-18T18:19:11.136Z,7.70
2023-02-18T18:21:40.366Z,7.62
2023-02-18T18:24:09.566Z,7.66
2023-02-18T18:26:37.497Z,7.79
2023-02-18T18:29:05.508Z,7.84
2023-02-18T18:31:33.597Z,7.92
2023-02-18T18:34:02.952Z,7.99
2023-02-18T18:36:30.856Z,7.97
2023-02-18T18:39:00.234Z,7.82
2023-02-18T18:41:28.116Z,7.75
2023-02-18T18:43:56.051Z,7.79
2023-02-18T18:46:23.993Z,7.80
2023-02-18T18:48:52.826Z,7.83
2023-02-18T18:51:26.985Z,7.83
2023-02-18T18:53:55.102Z,7.96
2023-02-18T18:56:27.412Z,7.99
2023-02-18T18:58:55.612Z,8.03
2023-02-18T19:01:27.139Z,8.07
2023-02-18T19:03:55.439Z,8.08
2023-02-18T19:06:23.452Z,8.02
2023-02-18T19:08:51.389Z,7.83
2023-02-18T19:11:19.368Z,7.85
2023-02-18T19:13:48.608Z,7.77
2023-02-18T19:16:20.205Z,7.88
2023-02-18T19:18:48.884Z,7.80
2023-02-18T19:21:16.794Z,7.75
2023-02-18T19:23:45.066Z,7.77
2023-02-18T19:26:15.777Z,7.77
2023-02-18T19:28:44.512Z,7.75
2023-02-18T19:31:16.834Z,7.76
2023-02-18T19:33:47.063Z,7.74
2023-02-18T19:36:16.828Z,7.80
2023-02-18T19:38:48.658Z,7.74
2023-02-18T19:41:18.122Z,7.67
2023-02-18T19:43:47.118Z,7.71
2023-02-18T19:46:18.486Z,7.73
2023-02-18T19:48:50.670Z,7.71
2023-02-18T19:51:19.551Z,7.60
2023-02-18T19:53:47.955Z,7.65
2023-02-18T19:56:20.499Z,7.69
2023-02-18T19:58:48.820Z,7.64
2023-02-18T20:01:19.465Z,7.61
2023-02-18T20:03:47.681Z,7.53
2023-02-18T20:06:16.874Z,7.50
2023-02-18T20:08:45.015Z,7.44
2023-02-18T20:11:13.053Z,7.38
2023-02-18T20:13:41.697Z,7.28
2023-02-18T20:16:11.020Z,7.28
2023-02-18T20:18:40.605Z,7.31
2023-02-18T20:21:12.912Z,7.26
2023-02-18T20:23:41.153Z,7.14
2023-02-18T20:26:09.460Z,7.24
2023-02-18T20:28:37.606Z,7.24
2023-02-18T20:31:07.126Z,7.07
2023-02-18T20:33:35.353Z,7.19
2023-02-18T20:36:14.403Z,7.23
2023-02-18T20:38:42.663Z,7.25
2023-02-18T20:41:19.823Z,7.15
2023-02-18T20:43:52.420Z,7.15
2023-02-18T20:46:24.676Z,7.17
2023-02-18T20:48:53.266Z,7.17
2023-02-18T20:51:23.984Z,7.20
2023-02-18T20:54:40.311Z,7.07
2023-02-18T20:57:14.575Z,6.98
2023-02-18T20:59:43.742Z,7.00
2023-02-18T21:02:16.730Z,6.98
2023-02-18T21:04:45.210Z,7.04
2023-02-18T21:07:14.516Z,7.08
2023-02-18T21:09:45.214Z,7.15
2023-02-18T21:12:13.474Z,7.13
2023-02-18T21:14:41.589Z,7.05
2023-02-18T21:17:09.752Z,7.08
2023-02-18T21:19:38.046Z,7.12
2023-02-18T21:22:05.884Z,7.07
2023-02-18T21:24:36.839Z,7.01
2023-02-18T21:27:09.530Z,7.06
2023-02-18T21:29:37.455Z,7.14
2023-02-18T21:32:14.051Z,7.13
2023-02-18T21:34:42.587Z,7.13
2023-02-18T21:37:50.628Z,7.01
2023-02-18T21:40:36.350Z,6.94
2023-02-18T21:43:48.252Z,6.89
2023-02-18T21:47:09.874Z,6.93
2023-02-18T21:49:37.783Z,6.86
2023-02-18T21:52:32.458Z,6.81
2023-02-18T21:58:13.665Z,6.95
2023-02-18T22:00:41.908Z,7.00
2023-02-18T22:03:12.779Z,7.07
2023-02-18T22:05:41.236Z,6.93
2023-02-18T22:08:09.299Z,6.93
2023-02-18T22:10:58.982Z,7.08
2023-02-18T22:13:41.760Z,7.13
2023-02-18T22:16:10.023Z,7.09
2023-02-18T22:18:37.877Z,7.12
2023-02-18T22:21:08.765Z,7.11
2023-02-18T22:23:37.252Z,7.17
2023-02-18T22:26:06.531Z,7.10
2023-02-18T22:28:36.481Z,7.14
2023-02-18T22:31:07.788Z,7.19
2023-02-18T22:33:37.084Z,7.18
2023-02-18T22:36:07.325Z,7.22
2023-02-18T22:38:36.561Z,7.30
2023-02-18T22:41:05.888Z,7.33
2023-02-18T22:43:35.436Z,7.38
2023-02-18T22:46:04.208Z,7.40
2023-02-18T22:48:33.352Z,7.41
2023-02-18T22:51:10.539Z,7.33
2023-02-18T22:53:39.280Z,7.30
2023-02-18T22:56:09.430Z,7.41
2023-02-18T22:58:39.243Z,7.40
2023-02-18T23:01:08.370Z,7.44
2023-02-18T23:03:36.705Z,7.53
2023-02-18T23:06:05.892Z,7.42
2023-02-18T23:08:34.690Z,7.51
2023-02-18T23:11:03.219Z,7.54
2023-02-18T23:13:31.290Z,7.53
2023-02-18T23:16:01.823Z,7.66
2023-02-18T23:18:33.023Z,7.68
2023-02-18T23:21:21.912Z,7.66
2023-02-18T23:23:55.053Z,7.59
2023-02-18T23:26:26.785Z,7.64
2023-02-18T23:28:54.936Z,7.61
2023-02-18T23:31:29.169Z,7.69
2023-02-18T23:33:59.169Z,7.68
2023-02-18T23:36:46.763Z,7.66
2023-02-18T23:39:37.607Z,7.64
2023-02-18T23:42:24.976Z,7.69
2023-02-18T23:44:56.917Z,7.66
2023-02-18T23:47:26.109Z,7.70
2023-02-18T23:49:57.968Z,7.73
2023-02-18T23:52:26.015Z,7.80
2023-02-18T23:54:54.434Z,7.83
2023-02-18T23:57:23.980Z,7.85
2023-02-18T23:59:52.083Z,7.89
